sensor_id;sensor_type;location;lat;lon;timestamp;P1;durP1;ratioP1;P2;durP2;ratioP2
6111;SDS011;3086;48.802;9.394;2023-04-24T00:02:12;1.30;;;1.20;;
6111;SDS011;3086;48.802;9.394;2023-04-24T00:05:35;1.43;;;1.33;;
6111;SDS011;3086;48.802;9.394;2023-04-24T00:08:57;1.33;;;1.33;;
6111;SDS011;3086;48.802;9.394;2023-04-24T00:12:20;1.80;;;1.70;;
6111;SDS011;3086;48.802;9.394;2023-04-24T00:15:42;1.60;;;1.50;;
6111;SDS011;3086;48.802;9.394;2023-04-24T00:19:04;1.23;;;1.23;;
6111;SDS011;3086;48.802;9.394;2023-04-24T00:22:27;1.93;;;1.80;;
6111;SDS011;3086;48.802;9.394;2023-04-24T00:25:49;2.00;;;1.60;;
6111;SDS011;3086;48.802;9.394;2023-04-24T00:29:12;1.50;;;1.40;;
6111;SDS011;3086;48.802;9.394;2023-04-24T00:32:33;1.97;;;1.60;;
6111;SDS011;3086;48.802;9.394;2023-04-24T00:35:55;1.63;;;1.53;;
6111;SDS011;3086;48.802;9.394;2023-04-24T00:39:16;2.80;;;2.00;;
6111;SDS011;3086;48.802;9.394;2023-04-24T00:42:38;1.33;;;1.23;;
6111;SDS011;3086;48.802;9.394;2023-04-24T00:46:01;1.83;;;1.50;;
6111;SDS011;3086;48.802;9.394;2023-04-24T00:49:23;5.40;;;1.50;;
6111;SDS011;3086;48.802;9.394;2023-04-24T00:52:45;3.37;;;1.43;;
6111;SDS011;3086;48.802;9.394;2023-04-24T00:56:06;1.60;;;1.50;;
6111;SDS011;3086;48.802;9.394;2023-04-24T00:59:28;1.93;;;1.57;;
6111;SDS011;3086;48.802;9.394;2023-04-24T01:02:51;1.40;;;1.40;;
6111;SDS011;3086;48.802;9.394;2023-04-24T01:06:13;2.30;;;1.43;;
6111;SDS011;3086;48.802;9.394;2023-04-24T01:09:35;1.60;;;1.40;;
6111;SDS011;3086;48.802;9.394;2023-04-24T01:12:57;1.60;;;1.50;;
6111;SDS011;3086;48.802;9.394;2023-04-24T01:16:19;3.17;;;1.70;;
6111;SDS011;3086;48.802;9.394;2023-04-24T01:19:42;1.50;;;1.40;;
6111;SDS011;3086;48.802;9.394;2023-04-24T01:23:06;1.60;;;1.50;;
6111;SDS011;3086;48.802;9.394;2023-04-24T01:26:27;1.83;;;1.50;;
6111;SDS011;3086;48.802;9.394;2023-04-24T01:29:49;1.73;;;1.50;;
6111;SDS011;3086;48.802;9.394;2023-04-24T01:33:11;1.43;;;1.33;;
6111;SDS011;3086;48.802;9.394;2023-04-24T01:36:34;2.07;;;1.70;;
6111;SDS011;3086;48.802;9.394;2023-04-24T01:39:57;3.80;;;1.53;;
6111;SDS011;3086;48.802;9.394;2023-04-24T01:43:19;3.07;;;1.47;;
6111;SDS011;3086;48.802;9.394;2023-04-24T01:46:40;1.43;;;1.40;;
6111;SDS011;3086;48.802;9.394;2023-04-24T01:50:02;1.33;;;1.20;;
6111;SDS011;3086;48.802;9.394;2023-04-24T01:53:24;1.93;;;1.50;;
6111;SDS011;3086;48.802;9.394;2023-04-24T01:56:47;1.93;;;1.50;;
6111;SDS011;3086;48.802;9.394;2023-04-24T02:00:09;1.30;;;1.30;;
6111;SDS011;3086;48.802;9.394;2023-04-24T02:03:32;1.70;;;1.60;;
6111;SDS011;3086;48.802;9.394;2023-04-24T02:06:53;6.40;;;1.50;;
6111;SDS011;3086;48.802;9.394;2023-04-24T02:10:15;2.63;;;1.60;;
6111;SDS011;3086;48.802;9.394;2023-04-24T02:13:38;2.83;;;1.47;;
6111;SDS011;3086;48.802;9.394;2023-04-24T02:16:59;2.23;;;1.37;;
6111;SDS011;3086;48.802;9.394;2023-04-24T02:20:21;1.63;;;1.53;;
6111;SDS011;3086;48.802;9.394;2023-04-24T02:23:42;4.23;;;1.57;;
6111;SDS011;3086;48.802;9.394;2023-04-24T02:27:04;1.30;;;1.23;;
6111;SDS011;3086;48.802;9.394;2023-04-24T02:30:27;2.73;;;1.93;;
6111;SDS011;3086;48.802;9.394;2023-04-24T02:33:48;2.50;;;1.40;;
6111;SDS011;3086;48.802;9.394;2023-04-24T02:37:10;1.47;;;1.33;;
6111;SDS011;3086;48.802;9.394;2023-04-24T02:40:31;2.00;;;1.37;;
6111;SDS011;3086;48.802;9.394;2023-04-24T02:43:53;2.17;;;1.97;;
6111;SDS011;3086;48.802;9.394;2023-04-24T02:47:16;6.17;;;1.67;;
6111;SDS011;3086;48.802;9.394;2023-04-24T02:50:37;3.03;;;1.50;;
6111;SDS011;3086;48.802;9.394;2023-04-24T02:53:59;1.60;;;1.50;;
6111;SDS011;3086;48.802;9.394;2023-04-24T02:57:20;3.23;;;1.43;;
6111;SDS011;3086;48.802;9.394;2023-04-24T03:00:42;1.50;;;1.50;;
6111;SDS011;3086;48.802;9.394;2023-04-24T03:04:05;3.17;;;1.50;;
6111;SDS011;3086;48.802;9.394;2023-04-24T03:07:27;1.90;;;1.40;;
6111;SDS011;3086;48.802;9.394;2023-04-24T03:10:48;1.50;;;1.40;;
6111;SDS011;3086;48.802;9.394;2023-04-24T03:14:10;1.43;;;1.33;;
6111;SDS011;3086;48.802;9.394;2023-04-24T03:17:31;1.37;;;1.37;;
6111;SDS011;3086;48.802;9.394;2023-04-24T03:20:54;1.57;;;1.47;;
6111;SDS011;3086;48.802;9.394;2023-04-24T03:24:16;1.57;;;1.47;;
6111;SDS011;3086;48.802;9.394;2023-04-24T03:27:37;2.77;;;1.30;;
6111;SDS011;3086;48.802;9.394;2023-04-24T03:30:59;3.37;;;1.63;;
6111;SDS011;3086;48.802;9.394;2023-04-24T03:34:20;2.53;;;1.60;;
6111;SDS011;3086;48.802;9.394;2023-04-24T03:37:43;3.07;;;1.63;;
6111;SDS011;3086;48.802;9.394;2023-04-24T03:41:05;1.97;;;1.87;;
6111;SDS011;3086;48.802;9.394;2023-04-24T03:44:26;1.60;;;1.50;;
6111;SDS011;3086;48.802;9.394;2023-04-24T03:47:48;1.80;;;1.70;;
6111;SDS011;3086;48.802;9.394;2023-04-24T03:51:10;1.50;;;1.50;;
6111;SDS011;3086;48.802;9.394;2023-04-24T03:54:32;1.50;;;1.40;;
6111;SDS011;3086;48.802;9.394;2023-04-24T03:57:54;2.20;;;1.40;;
6111;SDS011;3086;48.802;9.394;2023-04-24T04:01:15;1.50;;;1.40;;
6111;SDS011;3086;48.802;9.394;2023-04-24T04:04:38;1.50;;;1.40;;
6111;SDS011;3086;48.802;9.394;2023-04-24T04:07:59;1.60;;;1.50;;
6111;SDS011;3086;48.802;9.394;2023-04-24T04:11:22;1.60;;;1.50;;
6111;SDS011;3086;48.802;9.394;2023-04-24T04:14:43;1.63;;;1.53;;
6111;SDS011;3086;48.802;9.394;2023-04-24T04:18:05;2.63;;;1.50;;
6111;SDS011;3086;48.802;9.394;2023-04-24T04:21:27;1.83;;;1.43;;
6111;SDS011;3086;48.802;9.394;2023-04-24T04:24:48;1.77;;;1.67;;
6111;SDS011;3086;48.802;9.394;2023-04-24T04:28:12;2.07;;;1.63;;
6111;SDS011;3086;48.802;9.394;2023-04-24T04:31:33;2.27;;;2.07;;
6111;SDS011;3086;48.802;9.394;2023-04-24T04:34:55;3.40;;;2.10;;
6111;SDS011;3086;48.802;9.394;2023-04-24T04:38:16;3.47;;;1.63;;
6111;SDS011;3086;48.802;9.394;2023-04-24T04:41:38;2.20;;;1.57;;
6111;SDS011;3086;48.802;9.394;2023-04-24T04:45:01;1.70;;;1.60;;
6111;SDS011;3086;48.802;9.394;2023-04-24T04:48:24;1.17;;;1.17;;
6111;SDS011;3086;48.802;9.394;2023-04-24T04:51:45;1.77;;;1.60;;
6111;SDS011;3086;48.802;9.394;2023-04-24T04:55:07;2.23;;;1.80;;
6111;SDS011;3086;48.802;9.394;2023-04-24T04:58:29;2.10;;;1.90;;
6111;SDS011;3086;48.802;9.394;2023-04-24T05:01:52;2.17;;;1.97;;
6111;SDS011;3086;48.802;9.394;2023-04-24T05:05:13;2.00;;;1.90;;
6111;SDS011;3086;48.802;9.394;2023-04-24T05:08:37;2.10;;;1.90;;
6111;SDS011;3086;48.802;9.394;2023-04-24T05:11:58;2.00;;;1.80;;
6111;SDS011;3086;48.802;9.394;2023-04-24T05:15:20;2.77;;;1.90;;
6111;SDS011;3086;48.802;9.394;2023-04-24T05:18:43;2.40;;;1.97;;
6111;SDS011;3086;48.802;9.394;2023-04-24T05:22:04;2.23;;;2.03;;
6111;SDS011;3086;48.802;9.394;2023-04-24T05:25:26;2.27;;;1.70;;
6111;SDS011;3086;48.802;9.394;2023-04-24T05:28:48;3.90;;;2.73;;
6111;SDS011;3086;48.802;9.394;2023-04-24T05:32:09;1.90;;;1.80;;
6111;SDS011;3086;48.802;9.394;2023-04-24T05:35:32;1.63;;;1.53;;
6111;SDS011;3086;48.802;9.394;2023-04-24T05:38:54;2.10;;;1.80;;
6111;SDS011;3086;48.802;9.394;2023-04-24T05:42:16;2.60;;;1.90;;
6111;SDS011;3086;48.802;9.394;2023-04-24T05:45:38;2.30;;;1.53;;
6111;SDS011;3086;48.802;9.394;2023-04-24T05:48:59;2.07;;;1.73;;
6111;SDS011;3086;48.802;9.394;2023-04-24T05:52:22;2.00;;;1.90;;
6111;SDS011;3086;48.802;9.394;2023-04-24T05:55:44;1.80;;;1.70;;
6111;SDS011;3086;48.802;9.394;2023-04-24T05:59:05;2.10;;;2.00;;
6111;SDS011;3086;48.802;9.394;2023-04-24T06:02:27;2.43;;;2.10;;
6111;SDS011;3086;48.802;9.394;2023-04-24T06:05:52;2.10;;;1.97;;
6111;SDS011;3086;48.802;9.394;2023-04-24T06:09:15;2.40;;;2.10;;
6111;SDS011;3086;48.802;9.394;2023-04-24T06:12:37;2.03;;;1.87;;
6111;SDS011;3086;48.802;9.394;2023-04-24T06:15:59;2.50;;;2.10;;
6111;SDS011;3086;48.802;9.394;2023-04-24T06:19:21;2.53;;;2.33;;
6111;SDS011;3086;48.802;9.394;2023-04-24T06:22:43;2.20;;;2.00;;
6111;SDS011;3086;48.802;9.394;2023-04-24T06:26:06;3.50;;;2.50;;
6111;SDS011;3086;48.802;9.394;2023-04-24T06:29:27;2.60;;;2.40;;
6111;SDS011;3086;48.802;9.394;2023-04-24T06:32:49;2.97;;;2.67;;
6111;SDS011;3086;48.802;9.394;2023-04-24T06:36:11;2.40;;;2.20;;
6111;SDS011;3086;48.802;9.394;2023-04-24T06:39:33;2.30;;;2.10;;
6111;SDS011;3086;48.802;9.394;2023-04-24T06:42:56;2.43;;;2.13;;
6111;SDS011;3086;48.802;9.394;2023-04-24T06:46:18;2.97;;;1.90;;
6111;SDS011;3086;48.802;9.394;2023-04-24T06:49:42;1.93;;;1.83;;
6111;SDS011;3086;48.802;9.394;2023-04-24T06:53:03;4.10;;;1.77;;
6111;SDS011;3086;48.802;9.394;2023-04-24T06:56:25;2.03;;;1.93;;
6111;SDS011;3086;48.802;9.394;2023-04-24T06:59:48;3.17;;;1.97;;
6111;SDS011;3086;48.802;9.394;2023-04-24T07:03:09;2.27;;;2.03;;
6111;SDS011;3086;48.802;9.394;2023-04-24T07:06:31;3.73;;;2.03;;
6111;SDS011;3086;48.802;9.394;2023-04-24T07:09:52;2.60;;;1.70;;
6111;SDS011;3086;48.802;9.394;2023-04-24T07:13:14;2.10;;;2.00;;
6111;SDS011;3086;48.802;9.394;2023-04-24T07:16:37;2.87;;;2.30;;
6111;SDS011;3086;48.802;9.394;2023-04-24T07:19:58;2.23;;;2.03;;
6111;SDS011;3086;48.802;9.394;2023-04-24T07:23:20;3.57;;;2.20;;
6111;SDS011;3086;48.802;9.394;2023-04-24T07:26:41;2.87;;;2.00;;
6111;SDS011;3086;48.802;9.394;2023-04-24T07:30:03;3.17;;;2.10;;
6111;SDS011;3086;48.802;9.394;2023-04-24T07:33:26;3.87;;;2.00;;
6111;SDS011;3086;48.802;9.394;2023-04-24T07:36:48;2.00;;;1.90;;
6111;SDS011;3086;48.802;9.394;2023-04-24T07:40:10;2.60;;;2.40;;
6111;SDS011;3086;48.802;9.394;2023-04-24T07:43:32;2.20;;;2.00;;
6111;SDS011;3086;48.802;9.394;2023-04-24T07:46:53;2.97;;;2.20;;
6111;SDS011;3086;48.802;9.394;2023-04-24T07:50:16;2.30;;;2.10;;
6111;SDS011;3086;48.802;9.394;2023-04-24T07:53:38;2.47;;;2.00;;
6111;SDS011;3086;48.802;9.394;2023-04-24T07:56:59;2.17;;;1.77;;
6111;SDS011;3086;48.802;9.394;2023-04-24T08:00:21;2.20;;;2.00;;
6111;SDS011;3086;48.802;9.394;2023-04-24T08:03:43;2.13;;;1.80;;
6111;SDS011;3086;48.802;9.394;2023-04-24T08:07:06;3.73;;;2.03;;
6111;SDS011;3086;48.802;9.394;2023-04-24T08:10:27;2.13;;;1.83;;
6111;SDS011;3086;48.802;9.394;2023-04-24T08:13:49;2.50;;;2.10;;
6111;SDS011;3086;48.802;9.394;2023-04-24T08:17:11;2.10;;;1.87;;
6111;SDS011;3086;48.802;9.394;2023-04-24T08:20:32;2.03;;;1.83;;
6111;SDS011;3086;48.802;9.394;2023-04-24T08:23:55;4.87;;;1.90;;
6111;SDS011;3086;48.802;9.394;2023-04-24T08:27:17;1.90;;;1.80;;
6111;SDS011;3086;48.802;9.394;2023-04-24T08:30:38;1.80;;;1.70;;
6111;SDS011;3086;48.802;9.394;2023-04-24T08:34:00;2.53;;;1.80;;
6111;SDS011;3086;48.802;9.394;2023-04-24T08:37:21;3.03;;;1.77;;
6111;SDS011;3086;48.802;9.394;2023-04-24T08:40:44;1.90;;;1.70;;
6111;SDS011;3086;48.802;9.394;2023-04-24T08:44:09;2.43;;;1.90;;
6111;SDS011;3086;48.802;9.394;2023-04-24T08:47:31;2.17;;;1.70;;
6111;SDS011;3086;48.802;9.394;2023-04-24T08:50:52;2.30;;;1.80;;
6111;SDS011;3086;48.802;9.394;2023-04-24T08:54:14;3.03;;;1.90;;
6111;SDS011;3086;48.802;9.394;2023-04-24T08:57:37;2.90;;;2.00;;
6111;SDS011;3086;48.802;9.394;2023-04-24T09:01:00;2.30;;;2.10;;
6111;SDS011;3086;48.802;9.394;2023-04-24T09:04:22;3.33;;;1.50;;
6111;SDS011;3086;48.802;9.394;2023-04-24T09:07:44;5.27;;;2.10;;
6111;SDS011;3086;48.802;9.394;2023-04-24T09:11:07;2.20;;;1.80;;
6111;SDS011;3086;48.802;9.394;2023-04-24T09:14:31;1.73;;;1.63;;
6111;SDS011;3086;48.802;9.394;2023-04-24T09:17:53;2.03;;;1.80;;
6111;SDS011;3086;48.802;9.394;2023-04-24T09:21:14;1.93;;;1.53;;
6111;SDS011;3086;48.802;9.394;2023-04-24T09:24:36;3.40;;;2.33;;
6111;SDS011;3086;48.802;9.394;2023-04-24T09:28:00;1.97;;;1.87;;
6111;SDS011;3086;48.802;9.394;2023-04-24T09:31:23;3.80;;;2.10;;
6111;SDS011;3086;48.802;9.394;2023-04-24T09:34:45;3.40;;;2.10;;
6111;SDS011;3086;48.802;9.394;2023-04-24T09:38:08;4.17;;;2.00;;
6111;SDS011;3086;48.802;9.394;2023-04-24T09:41:29;5.33;;;3.87;;
6111;SDS011;3086;48.802;9.394;2023-04-24T09:44:52;6.13;;;2.50;;
6111;SDS011;3086;48.802;9.394;2023-04-24T09:48:15;11.57;;;4.27;;
6111;SDS011;3086;48.802;9.394;2023-04-24T09:51:37;2.70;;;2.30;;
6111;SDS011;3086;48.802;9.394;2023-04-24T09:55:00;3.13;;;2.20;;
6111;SDS011;3086;48.802;9.394;2023-04-24T09:58:25;9.90;;;6.43;;
6111;SDS011;3086;48.802;9.394;2023-04-24T10:01:47;4.17;;;3.23;;
6111;SDS011;3086;48.802;9.394;2023-04-24T10:05:12;2.37;;;2.10;;
6111;SDS011;3086;48.802;9.394;2023-04-24T10:08:34;2.20;;;2.00;;
6111;SDS011;3086;48.802;9.394;2023-04-24T10:11:55;5.87;;;2.50;;
6111;SDS011;3086;48.802;9.394;2023-04-24T10:15:17;2.53;;;1.67;;
6111;SDS011;3086;48.802;9.394;2023-04-24T10:18:41;2.80;;;2.00;;
6111;SDS011;3086;48.802;9.394;2023-04-24T10:22:04;4.37;;;1.93;;
6111;SDS011;3086;48.802;9.394;2023-04-24T10:25:26;1.90;;;1.80;;
6111;SDS011;3086;48.802;9.394;2023-04-24T10:28:49;2.87;;;1.97;;
6111;SDS011;3086;48.802;9.394;2023-04-24T10:32:11;2.53;;;1.83;;
6111;SDS011;3086;48.802;9.394;2023-04-24T10:35:34;2.00;;;1.80;;
6111;SDS011;3086;48.802;9.394;2023-04-24T10:38:59;2.97;;;2.10;;
6111;SDS011;3086;48.802;9.394;2023-04-24T10:42:22;2.83;;;1.70;;
6111;SDS011;3086;48.802;9.394;2023-04-24T10:45:59;3.07;;;1.70;;
6111;SDS011;3086;48.802;9.394;2023-04-24T10:49:27;1.63;;;1.33;;
6111;SDS011;3086;48.802;9.394;2023-04-24T10:52:49;1.93;;;1.60;;
6111;SDS011;3086;48.802;9.394;2023-04-24T10:56:15;2.00;;;1.67;;
6111;SDS011;3086;48.802;9.394;2023-04-24T10:59:37;2.90;;;1.80;;
6111;SDS011;3086;48.802;9.394;2023-04-24T11:02:58;3.50;;;1.90;;
6111;SDS011;3086;48.802;9.394;2023-04-24T11:06:20;2.83;;;2.10;;
6111;SDS011;3086;48.802;9.394;2023-04-24T11:09:49;2.70;;;1.67;;
6111;SDS011;3086;48.802;9.394;2023-04-24T11:13:22;2.53;;;2.10;;
6111;SDS011;3086;48.802;9.394;2023-04-24T11:16:47;2.00;;;1.90;;
6111;SDS011;3086;48.802;9.394;2023-04-24T11:20:17;3.17;;;1.90;;
6111;SDS011;3086;48.802;9.394;2023-04-24T11:23:39;1.90;;;1.80;;
6111;SDS011;3086;48.802;9.394;2023-04-24T11:27:05;3.40;;;1.80;;
6111;SDS011;3086;48.802;9.394;2023-04-24T11:30:30;1.70;;;1.60;;
6111;SDS011;3086;48.802;9.394;2023-04-24T11:33:53;2.90;;;2.27;;
6111;SDS011;3086;48.802;9.394;2023-04-24T11:37:15;4.23;;;2.07;;
6111;SDS011;3086;48.802;9.394;2023-04-24T11:40:36;2.57;;;1.67;;
6111;SDS011;3086;48.802;9.394;2023-04-24T11:43:58;1.90;;;1.80;;
6111;SDS011;3086;48.802;9.394;2023-04-24T11:47:21;2.23;;;1.80;;
6111;SDS011;3086;48.802;9.394;2023-04-24T11:50:48;1.80;;;1.70;;
6111;SDS011;3086;48.802;9.394;2023-04-24T11:54:10;3.00;;;2.70;;
6111;SDS011;3086;48.802;9.394;2023-04-24T11:57:31;2.17;;;1.90;;
6111;SDS011;3086;48.802;9.394;2023-04-24T12:00:56;2.20;;;2.00;;
6111;SDS011;3086;48.802;9.394;2023-04-24T12:04:20;2.90;;;1.93;;
6111;SDS011;3086;48.802;9.394;2023-04-24T12:07:42;1.70;;;1.60;;
6111;SDS011;3086;48.802;9.394;2023-04-24T12:11:04;1.80;;;1.70;;
6111;SDS011;3086;48.802;9.394;2023-04-24T12:14:27;1.97;;;1.83;;
6111;SDS011;3086;48.802;9.394;2023-04-24T12:17:50;2.03;;;1.87;;
6111;SDS011;3086;48.802;9.394;2023-04-24T12:21:16;2.00;;;1.83;;
6111;SDS011;3086;48.802;9.394;2023-04-24T12:28:18;1.73;;;1.63;;
6111;SDS011;3086;48.802;9.394;2023-04-24T12:31:40;3.00;;;1.73;;
6111;SDS011;3086;48.802;9.394;2023-04-24T12:35:04;3.37;;;1.90;;
6111;SDS011;3086;48.802;9.394;2023-04-24T12:38:28;2.87;;;2.00;;
6111;SDS011;3086;48.802;9.394;2023-04-24T12:41:50;2.50;;;1.97;;
6111;SDS011;3086;48.802;9.394;2023-04-24T12:45:17;3.83;;;1.67;;
6111;SDS011;3086;48.802;9.394;2023-04-24T12:48:40;3.47;;;2.20;;
6111;SDS011;3086;48.802;9.394;2023-04-24T12:52:01;3.13;;;1.93;;
6111;SDS011;3086;48.802;9.394;2023-04-24T12:55:24;3.80;;;2.30;;
6111;SDS011;3086;48.802;9.394;2023-04-24T12:58:45;3.50;;;2.13;;
6111;SDS011;3086;48.802;9.394;2023-04-24T13:02:07;2.20;;;2.00;;
6111;SDS011;3086;48.802;9.394;2023-04-24T13:05:30;2.27;;;2.00;;
6111;SDS011;3086;48.802;9.394;2023-04-24T13:08:51;2.00;;;1.80;;
6111;SDS011;3086;48.802;9.394;2023-04-24T13:12:16;2.17;;;1.97;;
6111;SDS011;3086;48.802;9.394;2023-04-24T13:15:37;1.90;;;1.80;;
6111;SDS011;3086;48.802;9.394;2023-04-24T13:18:59;2.57;;;1.83;;
6111;SDS011;3086;48.802;9.394;2023-04-24T13:22:21;3.57;;;1.90;;
6111;SDS011;3086;48.802;9.394;2023-04-24T13:25:42;5.13;;;2.30;;
6111;SDS011;3086;48.802;9.394;2023-04-24T13:29:05;3.07;;;2.57;;
6111;SDS011;3086;48.802;9.394;2023-04-24T13:32:27;2.70;;;2.50;;
6111;SDS011;3086;48.802;9.394;2023-04-24T13:35:48;1.97;;;1.87;;
6111;SDS011;3086;48.802;9.394;2023-04-24T13:39:10;2.37;;;2.23;;
6111;SDS011;3086;48.802;9.394;2023-04-24T13:42:31;2.00;;;1.90;;
6111;SDS011;3086;48.802;9.394;2023-04-24T13:45:54;2.30;;;2.10;;
6111;SDS011;3086;48.802;9.394;2023-04-24T13:49:16;2.10;;;2.00;;
6111;SDS011;3086;48.802;9.394;2023-04-24T13:52:37;2.60;;;1.90;;
6111;SDS011;3086;48.802;9.394;2023-04-24T13:55:59;2.53;;;1.60;;
6111;SDS011;3086;48.802;9.394;2023-04-24T13:59:21;1.80;;;1.70;;
6111;SDS011;3086;48.802;9.394;2023-04-24T14:02:43;1.80;;;1.70;;
6111;SDS011;3086;48.802;9.394;2023-04-24T14:06:05;2.20;;;2.00;;
6111;SDS011;3086;48.802;9.394;2023-04-24T14:09:27;2.00;;;1.90;;
6111;SDS011;3086;48.802;9.394;2023-04-24T14:12:49;3.00;;;1.93;;
6111;SDS011;3086;48.802;9.394;2023-04-24T14:16:10;3.10;;;2.20;;
6111;SDS011;3086;48.802;9.394;2023-04-24T14:19:33;1.90;;;1.80;;
6111;SDS011;3086;48.802;9.394;2023-04-24T14:22:55;2.00;;;1.90;;
6111;SDS011;3086;48.802;9.394;2023-04-24T14:26:19;1.97;;;1.83;;
6111;SDS011;3086;48.802;9.394;2023-04-24T14:29:40;3.97;;;2.30;;
6111;SDS011;3086;48.802;9.394;2023-04-24T14:33:02;2.60;;;2.40;;
6111;SDS011;3086;48.802;9.394;2023-04-24T14:36:25;2.17;;;2.07;;
6111;SDS011;3086;48.802;9.394;2023-04-24T14:39:47;2.43;;;2.23;;
6111;SDS011;3086;48.802;9.394;2023-04-24T14:43:08;1.97;;;1.87;;
6111;SDS011;3086;48.802;9.394;2023-04-24T14:46:30;2.50;;;2.30;;
6111;SDS011;3086;48.802;9.394;2023-04-24T14:49:51;2.03;;;1.93;;
6111;SDS011;3086;48.802;9.394;2023-04-24T14:53:14;2.43;;;1.90;;
6111;SDS011;3086;48.802;9.394;2023-04-24T14:56:36;2.30;;;2.10;;
6111;SDS011;3086;48.802;9.394;2023-04-24T15:00:00;2.00;;;1.90;;
6111;SDS011;3086;48.802;9.394;2023-04-24T15:03:23;3.20;;;2.03;;
6111;SDS011;3086;48.802;9.394;2023-04-24T15:06:46;2.70;;;2.00;;
6111;SDS011;3086;48.802;9.394;2023-04-24T15:10:11;1.93;;;1.83;;
6111;SDS011;3086;48.802;9.394;2023-04-24T15:13:32;2.23;;;2.03;;
6111;SDS011;3086;48.802;9.394;2023-04-24T15:16:54;2.13;;;2.03;;
6111;SDS011;3086;48.802;9.394;2023-04-24T15:20:15;2.77;;;2.20;;
6111;SDS011;3086;48.802;9.394;2023-04-24T15:23:37;2.97;;;1.90;;
6111;SDS011;3086;48.802;9.394;2023-04-24T15:27:00;2.37;;;2.17;;
6111;SDS011;3086;48.802;9.394;2023-04-24T15:30:23;2.50;;;2.30;;
6111;SDS011;3086;48.802;9.394;2023-04-24T15:33:44;2.30;;;2.10;;
6111;SDS011;3086;48.802;9.394;2023-04-24T15:37:06;2.27;;;2.03;;
6111;SDS011;3086;48.802;9.394;2023-04-24T15:40:27;2.50;;;2.30;;
6111;SDS011;3086;48.802;9.394;2023-04-24T15:43:50;3.13;;;2.20;;
6111;SDS011;3086;48.802;9.394;2023-04-24T15:47:12;2.77;;;2.57;;
6111;SDS011;3086;48.802;9.394;2023-04-24T15:50:34;2.77;;;2.57;;
6111;SDS011;3086;48.802;9.394;2023-04-24T15:53:55;5.50;;;3.70;;
6111;SDS011;3086;48.802;9.394;2023-04-24T15:57:17;2.73;;;2.53;;
6111;SDS011;3086;48.802;9.394;2023-04-24T16:00:40;3.97;;;2.80;;
6111;SDS011;3086;48.802;9.394;2023-04-24T16:04:01;3.30;;;3.00;;
6111;SDS011;3086;48.802;9.394;2023-04-24T16:07:23;3.13;;;2.83;;
6111;SDS011;3086;48.802;9.394;2023-04-24T16:10:44;2.70;;;2.50;;
6111;SDS011;3086;48.802;9.394;2023-04-24T16:14:06;2.60;;;2.40;;
6111;SDS011;3086;48.802;9.394;2023-04-24T16:17:29;2.67;;;2.47;;
6111;SDS011;3086;48.802;9.394;2023-04-24T16:20:51;2.33;;;2.20;;
6111;SDS011;3086;48.802;9.394;2023-04-24T16:24:12;2.27;;;2.00;;
6111;SDS011;3086;48.802;9.394;2023-04-24T16:27:34;2.40;;;2.20;;
6111;SDS011;3086;48.802;9.394;2023-04-24T16:30:56;2.17;;;2.00;;
6111;SDS011;3086;48.802;9.394;2023-04-24T16:34:19;2.50;;;2.20;;
6111;SDS011;3086;48.802;9.394;2023-04-24T16:37:40;3.13;;;2.40;;
6111;SDS011;3086;48.802;9.394;2023-04-24T16:41:02;2.77;;;2.27;;
6111;SDS011;3086;48.802;9.394;2023-04-24T16:44:24;2.20;;;2.00;;
6111;SDS011;3086;48.802;9.394;2023-04-24T16:47:45;2.40;;;2.20;;
6111;SDS011;3086;48.802;9.394;2023-04-24T16:51:08;2.50;;;2.30;;
6111;SDS011;3086;48.802;9.394;2023-04-24T16:54:30;2.67;;;2.47;;
6111;SDS011;3086;48.802;9.394;2023-04-24T16:57:53;2.50;;;2.30;;
6111;SDS011;3086;48.802;9.394;2023-04-24T17:01:15;2.47;;;2.30;;
6111;SDS011;3086;48.802;9.394;2023-04-24T17:04:36;2.17;;;2.03;;
6111;SDS011;3086;48.802;9.394;2023-04-24T17:07:59;2.50;;;2.30;;
6111;SDS011;3086;48.802;9.394;2023-04-24T17:11:21;2.47;;;2.27;;
6111;SDS011;3086;48.802;9.394;2023-04-24T17:14:43;2.90;;;2.20;;
6111;SDS011;3086;48.802;9.394;2023-04-24T17:18:04;2.80;;;2.50;;
6111;SDS011;3086;48.802;9.394;2023-04-24T17:21:26;2.63;;;2.43;;
6111;SDS011;3086;48.802;9.394;2023-04-24T17:24:49;2.63;;;2.43;;
6111;SDS011;3086;48.802;9.394;2023-04-24T17:28:13;3.63;;;2.93;;
6111;SDS011;3086;48.802;9.394;2023-04-24T17:31:36;2.97;;;2.67;;
6111;SDS011;3086;48.802;9.394;2023-04-24T17:34:58;2.67;;;2.47;;
6111;SDS011;3086;48.802;9.394;2023-04-24T17:38:21;2.97;;;2.73;;
6111;SDS011;3086;48.802;9.394;2023-04-24T17:41:46;4.20;;;3.20;;
6111;SDS011;3086;48.802;9.394;2023-04-24T17:45:08;3.30;;;3.00;;
6111;SDS011;3086;48.802;9.394;2023-04-24T17:48:30;3.10;;;2.50;;
6111;SDS011;3086;48.802;9.394;2023-04-24T17:51:51;3.33;;;2.30;;
6111;SDS011;3086;48.802;9.394;2023-04-24T17:55:13;3.03;;;2.40;;
6111;SDS011;3086;48.802;9.394;2023-04-24T17:58:36;2.63;;;2.40;;
6111;SDS011;3086;48.802;9.394;2023-04-24T18:01:58;2.97;;;2.77;;
6111;SDS011;3086;48.802;9.394;2023-04-24T18:05:19;3.60;;;2.90;;
6111;SDS011;3086;48.802;9.394;2023-04-24T18:08:41;3.40;;;3.10;;
6111;SDS011;3086;48.802;9.394;2023-04-24T18:12:03;3.30;;;2.87;;
6111;SDS011;3086;48.802;9.394;2023-04-24T18:15:26;3.30;;;3.00;;
6111;SDS011;3086;48.802;9.394;2023-04-24T18:18:48;7.60;;;5.20;;
6111;SDS011;3086;48.802;9.394;2023-04-24T18:22:09;5.23;;;4.17;;
6111;SDS011;3086;48.802;9.394;2023-04-24T18:25:31;4.37;;;3.60;;
6111;SDS011;3086;48.802;9.394;2023-04-24T18:28:52;5.57;;;4.00;;
6111;SDS011;3086;48.802;9.394;2023-04-24T18:32:23;6.23;;;3.93;;
6111;SDS011;3086;48.802;9.394;2023-04-24T18:35:46;3.60;;;3.30;;
6111;SDS011;3086;48.802;9.394;2023-04-24T18:39:07;5.10;;;4.00;;
6111;SDS011;3086;48.802;9.394;2023-04-24T18:42:29;6.07;;;4.03;;
6111;SDS011;3086;48.802;9.394;2023-04-24T18:45:50;5.20;;;4.70;;
6111;SDS011;3086;48.802;9.394;2023-04-24T18:49:13;6.37;;;4.73;;
6111;SDS011;3086;48.802;9.394;2023-04-24T18:52:35;7.33;;;5.37;;
6111;SDS011;3086;48.802;9.394;2023-04-24T18:55:56;7.03;;;4.27;;
6111;SDS011;3086;48.802;9.394;2023-04-24T18:59:18;5.73;;;3.43;;
6111;SDS011;3086;48.802;9.394;2023-04-24T19:02:40;5.30;;;4.33;;
6111;SDS011;3086;48.802;9.394;2023-04-24T19:06:03;4.30;;;3.53;;
6111;SDS011;3086;48.802;9.394;2023-04-24T19:09:26;3.20;;;3.00;;
6111;SDS011;3086;48.802;9.394;2023-04-24T19:12:48;2.70;;;2.50;;
6111;SDS011;3086;48.802;9.394;2023-04-24T19:16:15;3.53;;;3.13;;
6111;SDS011;3086;48.802;9.394;2023-04-24T19:19:36;2.83;;;2.63;;
6111;SDS011;3086;48.802;9.394;2023-04-24T19:22:59;2.23;;;2.10;;
6111;SDS011;3086;48.802;9.394;2023-04-24T19:26:21;3.40;;;2.70;;
6111;SDS011;3086;48.802;9.394;2023-04-24T19:29:43;5.07;;;2.67;;
6111;SDS011;3086;48.802;9.394;2023-04-24T19:33:05;2.50;;;2.30;;
6111;SDS011;3086;48.802;9.394;2023-04-24T19:36:26;2.77;;;2.50;;
6111;SDS011;3086;48.802;9.394;2023-04-24T19:39:49;3.33;;;2.70;;
6111;SDS011;3086;48.802;9.394;2023-04-24T19:43:11;2.20;;;2.10;;
6111;SDS011;3086;48.802;9.394;2023-04-24T19:46:32;4.00;;;2.73;;
6111;SDS011;3086;48.802;9.394;2023-04-24T19:49:54;2.70;;;2.40;;
6111;SDS011;3086;48.802;9.394;2023-04-24T19:53:15;2.40;;;2.20;;
6111;SDS011;3086;48.802;9.394;2023-04-24T19:56:38;3.13;;;2.30;;
6111;SDS011;3086;48.802;9.394;2023-04-24T20:00:00;2.60;;;2.40;;
6111;SDS011;3086;48.802;9.394;2023-04-24T20:03:21;3.57;;;2.90;;
6111;SDS011;3086;48.802;9.394;2023-04-24T20:06:50;2.80;;;2.30;;
6111;SDS011;3086;48.802;9.394;2023-04-24T20:10:12;4.80;;;2.70;;
6111;SDS011;3086;48.802;9.394;2023-04-24T20:13:35;3.00;;;2.53;;
6111;SDS011;3086;48.802;9.394;2023-04-24T20:16:56;3.00;;;2.50;;
6111;SDS011;3086;48.802;9.394;2023-04-24T20:20:18;3.63;;;3.03;;
6111;SDS011;3086;48.802;9.394;2023-04-24T20:23:39;3.33;;;3.00;;
6111;SDS011;3086;48.802;9.394;2023-04-24T20:27:01;3.57;;;2.93;;
6111;SDS011;3086;48.802;9.394;2023-04-24T20:30:24;3.80;;;2.33;;
6111;SDS011;3086;48.802;9.394;2023-04-24T20:33:46;2.73;;;2.53;;
6111;SDS011;3086;48.802;9.394;2023-04-24T20:37:07;2.90;;;2.60;;
6111;SDS011;3086;48.802;9.394;2023-04-24T20:40:29;5.97;;;4.83;;
6111;SDS011;3086;48.802;9.394;2023-04-24T20:43:51;3.00;;;2.70;;
6111;SDS011;3086;48.802;9.394;2023-04-24T20:47:13;2.80;;;2.60;;
6111;SDS011;3086;48.802;9.394;2023-04-24T20:50:35;2.60;;;2.40;;
6111;SDS011;3086;48.802;9.394;2023-04-24T20:53:58;2.93;;;2.73;;
6111;SDS011;3086;48.802;9.394;2023-04-24T20:57:20;2.50;;;2.40;;
6111;SDS011;3086;48.802;9.394;2023-04-24T21:00:41;3.43;;;2.33;;